Time;durP1;ratioP1;P1;durP2;ratioP2;P2;SDS_P1;SDS_P2;PMS_P1;PMS_P2;Temp;Humidity;BMP_temperature;BMP_pressure;BME280_temperature;BME280_humidity;BME280_pressure;Samples;Min_cycle;Max_cycle;Signal;HPM_P1;HPM_P2
2022/10/09 00:00:39;;;;;;;1.37;1.13;;;6.10;99.90;5.90;101426.00;;;;4952084;28;88260;-61
2022/10/09 00:03:06;;;;;;;1.53;1.43;;;6.00;99.90;5.90;101417.00;;;;4950606;28;87938;-62
2022/10/09 00:05:32;;;;;;;1.90;1.17;;;6.00;99.90;5.90;101430.00;;;;4955010;28;88399;-62
2022/10/09 00:07:57;;;;;;;2.00;1.53;;;6.00;99.90;5.80;101436.00;;;;4953800;28;117683;-62
2022/10/09 00:10:23;;;;;;;1.30;1.07;;;6.00;99.90;5.80;101428.00;;;;4947973;28;109481;-62
2022/10/09 00:12:49;;;;;;;1.70;1.60;;;6.00;99.90;5.80;101443.00;;;;4943940;28;109097;-62
2022/10/09 00:15:15;;;;;;;1.63;1.53;;;6.00;99.90;5.80;101441.00;;;;4948093;28;116812;-62
2022/10/09 00:17:41;;;;;;;3.03;1.83;;;5.90;99.90;5.80;101440.00;;;;4945648;28;88888;-62
2022/10/09 00:20:07;;;;;;;3.53;2.13;;;5.90;99.90;5.80;101438.00;;;;4947255;28;109740;-62
2022/10/09 00:22:33;;;;;;;3.77;1.87;;;5.90;99.90;5.70;101439.00;;;;4950531;28;88035;-62
2022/10/09 00:24:59;;;;;;;2.43;1.60;;;5.90;99.90;5.70;101443.00;;;;4952760;28;117896;-62
2022/10/09 00:27:25;;;;;;;3.07;1.73;;;5.90;99.90;5.70;101436.00;;;;4943571;28;117959;-62
2022/10/09 00:29:50;;;;;;;2.37;1.57;;;5.90;99.90;5.70;101444.00;;;;4950552;28;109734;-62
2022/10/09 00:32:17;;;;;;;1.40;1.30;;;5.80;99.90;5.70;101442.00;;;;4944467;28;108251;-63
2022/10/09 00:34:43;;;;;;;3.03;1.83;;;5.80;99.90;5.60;101448.00;;;;4945652;28;87193;-62
2022/10/09 00:37:09;;;;;;;2.50;1.33;;;5.80;99.90;5.60;101433.00;;;;4947503;28;116804;-62
2022/10/09 00:39:35;;;;;;;1.50;1.33;;;5.80;99.90;5.60;101445.00;;;;4948516;28;110418;-62
2022/10/09 00:42:03;;;;;;;1.60;1.33;;;5.80;99.90;5.60;101440.00;;;;4950444;28;108947;-62
2022/10/09 00:44:50;;;;;;;3.70;1.87;;;5.70;99.90;5.50;101443.00;;;;4950994;28;88888;-62
2022/10/09 00:47:24;;;;;;;1.40;1.30;;;5.70;99.90;5.50;101444.00;;;;4945174;28;87973;-62
2022/10/09 00:49:53;;;;;;;2.03;1.27;;;5.70;99.90;5.50;101451.00;;;;4949056;28;87813;-62
2022/10/09 00:52:22;;;;;;;2.60;0.90;;;5.60;99.90;5.50;101443.00;;;;4948305;28;90230;-62
2022/10/09 00:54:47;;;;;;;0.93;0.93;;;5.60;99.90;5.40;101441.00;;;;4943484;28;108876;-62
2022/10/09 00:57:13;;;;;;;0.93;0.80;;;5.70;99.90;5.40;101448.00;;;;4944678;28;117323;-62
2022/10/09 00:59:39;;;;;;;1.93;1.70;;;5.60;99.90;5.40;101449.00;;;;4948806;28;110289;-62
2022/10/09 01:02:06;;;;;;;1.80;1.23;;;5.60;99.90;5.40;101439.00;;;;4943732;28;107621;-62
2022/10/09 01:04:31;;;;;;;1.53;1.13;;;5.60;99.90;5.30;101438.00;;;;4948299;28;107991;-62
2022/10/09 01:07:27;;;;;;;2.33;1.40;;;5.50;99.90;5.30;101449.00;;;;4941268;28;117481;-62
2022/10/09 01:10:17;;;;;;;2.13;1.47;;;5.50;99.90;5.20;101453.00;;;;4958995;28;87797;-62
2022/10/09 01:13:06;;;;;;;3.37;1.63;;;5.50;99.90;5.20;101454.00;;;;4945637;28;87931;-62
2022/10/09 01:15:59;;;;;;;2.03;1.30;;;5.50;99.90;5.20;101453.00;;;;4950749;28;88245;-62
2022/10/09 01:18:46;;;;;;;2.00;1.30;;;5.40;99.90;5.10;101452.00;;;;4963486;28;109648;-62
2022/10/09 01:21:52;;;;;;;2.83;1.77;;;5.10;99.90;5.10;101459.00;;;;4950812;28;100539;-62
2022/10/09 01:24:28;;;;;;;2.10;0.90;;;5.30;99.90;5.00;101453.00;;;;4947867;28;87822;-62
2022/10/09 01:27:21;;;;;;;3.60;1.47;;;5.20;99.90;5.00;101441.00;;;;4944575;28;87615;-62
2022/10/09 01:30:00;;;;;;;1.50;1.40;;;5.20;99.90;4.90;101452.00;;;;4961512;28;88292;-62
2022/10/09 01:32:41;;;;;;;2.20;1.87;;;5.20;99.90;4.90;101458.00;;;;4960664;28;87556;-62
2022/10/09 01:35:10;;;;;;;2.70;1.20;;;5.20;99.90;4.90;101466.00;;;;4945733;28;99264;-62
2022/10/09 01:37:38;;;;;;;2.13;1.43;;;5.10;99.90;4.90;101458.00;;;;4949950;28;110612;-62
2022/10/09 01:40:06;;;;;;;2.40;1.70;;;5.10;99.90;4.80;101470.00;;;;4948845;28;108338;-62
2022/10/09 01:42:32;;;;;;;2.00;1.40;;;5.00;99.90;4.80;101465.00;;;;4951687;28;87846;-62
2022/10/09 01:44:58;;;;;;;1.97;1.77;;;5.00;99.90;4.70;101471.00;;;;4944340;28;107240;-62
2022/10/09 01:47:24;;;;;;;1.90;1.33;;;5.00;99.90;4.70;101474.00;;;;4946105;28;117881;-62
2022/10/09 01:50:09;;;;;;;3.23;1.13;;;4.80;99.90;4.60;101471.00;;;;4944267;28;88924;-63
2022/10/09 01:52:50;;;;;;;1.90;1.77;;;4.90;99.90;4.60;101472.00;;;;4944480;28;87347;-62
2022/10/09 01:55:42;;;;;;;2.87;1.40;;;4.90;99.90;4.60;101469.00;;;;4950742;28;88809;-62
2022/10/09 01:58:40;;;;;;;0.97;0.93;;;4.80;99.90;4.50;101466.00;;;;4949146;28;88029;-63
2022/10/09 02:01:12;;;;;;;1.80;1.10;;;4.80;99.90;4.50;101468.00;;;;4949383;28;89026;-63
2022/10/09 02:03:41;;;;;;;2.80;2.07;;;4.80;99.90;4.50;101471.00;;;;4947015;28;92863;-62
2022/10/09 02:06:10;;;;;;;2.10;1.73;;;4.70;99.90;4.50;101477.00;;;;4950832;28;87997;-62
2022/10/09 02:08:38;;;;;;;2.03;1.83;;;4.70;99.90;4.40;101478.00;;;;4948523;28;110152;-62
2022/10/09 02:11:04;;;;;;;2.43;1.23;;;4.60;99.90;4.40;101481.00;;;;4944719;28;117581;-62
2022/10/09 02:13:35;;;;;;;1.57;1.03;;;4.60;99.90;4.40;101488.00;;;;4942668;28;99538;-62
2022/10/09 02:16:35;;;;;;;3.47;1.93;;;4.80;99.90;4.30;101489.00;;;;4951801;28;109307;-62
2022/10/09 02:19:24;;;;;;;1.97;1.77;;;4.60;99.90;4.30;101497.00;;;;4968318;28;95738;-62
2022/10/09 02:21:59;;;;;;;1.97;1.20;;;4.50;99.90;4.30;101498.00;;;;4959340;28;88044;-61
2022/10/09 02:24:25;;;;;;;1.80;1.70;;;4.50;99.90;4.20;101498.00;;;;4949238;28;100633;-61
2022/10/09 02:26:53;;;;;;;1.50;1.40;;;4.50;99.90;4.20;101500.00;;;;4954411;28;88684;-61
2022/10/09 02:29:19;;;;;;;3.00;1.50;;;4.40;99.90;4.20;101503.00;;;;4949307;28;88579;-61
2022/10/09 02:31:45;;;;;;;1.23;1.13;;;4.40;99.90;4.20;101510.00;;;;4947614;28;91918;-61
2022/10/09 02:34:17;;;;;;;2.50;1.50;;;4.40;99.90;4.10;101505.00;;;;4952367;28;88108;-61
2022/10/09 02:36:42;;;;;;;4.67;1.57;;;4.40;99.90;4.10;101493.00;;;;4952470;28;87798;-62
2022/10/09 02:39:08;;;;;;;1.40;1.30;;;4.40;99.90;4.10;101501.00;;;;4952703;28;117445;-61
2022/10/09 02:41:35;;;;;;;2.80;2.27;;;4.30;99.90;4.10;101498.00;;;;4957033;28;117462;-62
2022/10/09 02:44:02;;;;;;;1.53;1.43;;;4.30;99.90;4.10;101515.00;;;;4952744;28;111540;-61
2022/10/09 02:46:28;;;;;;;2.83;1.20;;;4.30;99.90;4.10;101499.00;;;;4952006;28;87744;-62
2022/10/09 02:48:54;;;;;;;1.60;1.47;;;4.30;99.90;4.10;101512.00;;;;4948251;28;88862;-62
2022/10/09 02:51:20;;;;;;;3.50;1.57;;;4.30;99.90;4.00;101525.00;;;;4945785;28;88601;-62
2022/10/09 02:53:46;;;;;;;1.40;1.30;;;4.20;99.90;4.00;101515.00;;;;4948401;28;93896;-62
2022/10/09 02:56:11;;;;;;;3.63;2.33;;;4.30;99.90;4.00;101516.00;;;;4952118;28;90116;-62
2022/10/09 02:58:38;;;;;;;1.63;1.53;;;4.20;99.90;4.00;101519.00;;;;4953776;28;88893;-62
2022/10/09 03:01:04;;;;;;;1.73;1.60;;;4.20;99.90;4.00;101519.00;;;;4955783;28;97368;-62
2022/10/09 03:03:31;;;;;;;2.53;1.10;;;4.20;99.90;3.90;101513.00;;;;4953401;28;87837;-62
2022/10/09 03:06:10;;;;;;;2.53;1.63;;;4.20;99.90;3.90;101519.00;;;;4953022;28;87882;-62
2022/10/09 03:08:41;;;;;;;2.17;1.20;;;4.20;99.90;3.80;101499.00;;;;4949079;28;87564;-62
2022/10/09 03:11:08;;;;;;;1.33;1.20;;;4.10;99.90;3.80;101520.00;;;;4946002;28;87968;-62
2022/10/09 03:13:35;;;;;;;1.30;1.20;;;4.10;99.90;3.80;101517.00;;;;4949916;28;87970;-62
2022/10/09 03:16:06;;;;;;;1.70;1.40;;;4.00;99.90;3.80;101517.00;;;;4950765;28;92696;-62
2022/10/09 03:18:32;;;;;;;1.40;1.30;;;4.00;99.90;3.70;101508.00;;;;4954363;28;89047;-62
2022/10/09 03:20:58;;;;;;;1.47;1.30;;;4.00;99.90;3.70;101520.00;;;;4952504;28;106766;-62
2022/10/09 03:23:24;;;;;;;1.67;1.20;;;3.90;99.90;3.60;101522.00;;;;4952969;28;87694;-62
2022/10/09 03:25:57;;;;;;;3.30;1.53;;;4.10;99.90;3.60;101523.00;;;;4948802;28;109157;-62
2022/10/09 03:28:23;;;;;;;1.10;1.00;;;3.90;99.90;3.60;101518.00;;;;4948054;28;88716;-62
2022/10/09 03:30:49;;;;;;;1.77;1.67;;;4.10;99.90;3.50;101520.00;;;;4945076;28;87858;-62
2022/10/09 03:33:15;;;;;;;1.50;1.40;;;3.70;99.90;3.50;101534.00;;;;4945984;28;86854;-62
2022/10/09 03:35:41;;;;;;;1.63;1.13;;;3.70;99.90;3.50;101527.00;;;;4953269;28;87841;-62
2022/10/09 03:38:06;;;;;;;1.83;1.27;;;3.70;99.90;3.40;101536.00;;;;4952847;28;117755;-63
2022/10/09 03:40:32;;;;;;;3.37;1.93;;;3.70;99.90;3.40;101545.00;;;;4951394;28;116738;-62
2022/10/09 03:42:58;;;;;;;0.93;0.93;;;3.70;99.90;3.40;101539.00;;;;4951112;28;109200;-62
2022/10/09 03:45:24;;;;;;;2.00;1.07;;;3.60;99.90;3.30;101535.00;;;;4949487;28;88310;-62
2022/10/09 03:47:49;;;;;;;1.33;0.97;;;3.50;99.90;3.30;101545.00;;;;4949823;28;109276;-62
2022/10/09 03:50:15;;;;;;;1.33;1.23;;;3.50;99.90;3.20;101541.00;;;;4944618;28;117469;-62
2022/10/09 03:52:41;;;;;;;1.87;1.33;;;3.50;99.90;3.20;101543.00;;;;4947608;28;87753;-62
2022/10/09 03:55:07;;;;;;;1.23;1.13;;;3.50;99.90;3.20;101545.00;;;;4951190;28;109946;-62
2022/10/09 03:57:33;;;;;;;1.07;0.57;;;3.50;99.90;3.20;101543.00;;;;4953803;28;105715;-62
2022/10/09 03:59:59;;;;;;;1.17;1.07;;;3.50;99.90;3.20;101542.00;;;;4954414;28;87775;-62
2022/10/09 04:02:25;;;;;;;1.57;1.43;;;3.40;99.90;3.10;101546.00;;;;4950959;28;110568;-62
2022/10/09 04:04:51;;;;;;;2.13;1.13;;;3.40;99.90;3.10;101548.00;;;;4949790;28;88740;-62
2022/10/09 04:07:16;;;;;;;1.80;1.10;;;3.30;99.90;3.10;101549.00;;;;4949494;28;118360;-62
2022/10/09 04:09:42;;;;;;;2.10;1.20;;;3.60;99.90;3.00;101553.00;;;;4949099;28;117894;-62
2022/10/09 04:12:08;;;;;;;1.33;1.23;;;3.30;99.90;3.00;101547.00;;;;4943826;28;110304;-62
2022/10/09 04:14:33;;;;;;;2.00;1.33;;;3.30;99.90;3.00;101558.00;;;;4952323;28;89245;-62
2022/10/09 04:16:59;;;;;;;1.83;1.13;;;3.30;99.90;3.00;101560.00;;;;4952813;28;119498;-62
2022/10/09 04:19:25;;;;;;;1.40;1.30;;;3.20;99.90;2.90;101560.00;;;;4951900;28;116099;-62
2022/10/09 04:21:50;;;;;;;1.57;1.47;;;3.20;99.90;2.90;101561.00;;;;4952496;28;108879;-62
2022/10/09 04:24:16;;;;;;;1.40;1.30;;;3.10;99.90;2.90;101558.00;;;;4948638;28;109124;-62
2022/10/09 04:26:42;;;;;;;1.20;1.10;;;3.20;99.90;2.90;101566.00;;;;4947062;28;106610;-62
2022/10/09 04:29:07;;;;;;;2.03;1.63;;;3.10;99.90;2.80;101557.00;;;;4943366;28;117672;-62
2022/10/09 04:31:33;;;;;;;1.60;1.37;;;3.10;99.90;2.80;101563.00;;;;4943892;28;87966;-62
2022/10/09 04:33:59;;;;;;;1.63;1.10;;;3.00;99.90;2.80;101566.00;;;;4947555;28;108873;-62
2022/10/09 04:36:24;;;;;;;0.83;0.83;;;3.10;99.90;2.80;101556.00;;;;4954092;28;88220;-61
2022/10/09 04:38:51;;;;;;;1.17;1.07;;;3.10;99.90;2.80;101562.00;;;;4949696;28;117853;-62
2022/10/09 04:41:17;;;;;;;1.80;1.30;;;3.00;99.90;2.80;101563.00;;;;4953139;28;88455;-62
2022/10/09 04:43:43;;;;;;;1.30;1.20;;;3.00;99.90;2.80;101552.00;;;;4947432;28;108621;-62
2022/10/09 04:46:12;;;;;;;1.63;1.10;;;3.30;99.90;2.70;101553.00;;;;4944576;28;117875;-62
2022/10/09 04:48:39;;;;;;;1.23;1.13;;;3.20;99.90;2.70;101553.00;;;;4941463;28;87903;-62
2022/10/09 04:51:06;;;;;;;1.20;1.10;;;3.00;99.90;2.70;101558.00;;;;4941922;28;96870;-62
2022/10/09 04:53:33;;;;;;;1.33;1.23;;;3.10;99.90;2.70;101558.00;;;;4946279;28;98926;-62
2022/10/09 04:56:03;;;;;;;2.00;1.70;;;3.30;99.90;2.70;101559.00;;;;4954454;28;88313;-62
2022/10/09 04:58:30;;;;;;;2.37;1.33;;;2.90;99.90;2.70;101558.00;;;;4952601;28;88432;-61
2022/10/09 05:00:56;;;;;;;1.60;1.50;;;2.90;99.90;2.70;101568.00;;;;4951799;28;88084;-62
2022/10/09 05:03:22;;;;;;;1.27;1.17;;;3.00;99.90;2.60;101567.00;;;;4948992;28;108029;-62
2022/10/09 05:05:48;;;;;;;1.00;1.00;;;2.90;99.90;2.60;101567.00;;;;4951801;28;89932;-61
2022/10/09 05:08:13;;;;;;;1.77;1.23;;;2.90;99.90;2.60;101574.00;;;;4941857;28;116450;-62
2022/10/09 05:10:39;;;;;;;1.53;1.30;;;2.90;99.90;2.60;101586.00;;;;4940088;28;109515;-61
2022/10/09 05:13:05;;;;;;;2.63;1.23;;;2.80;99.90;2.50;101579.00;;;;4941435;28;90356;-62
2022/10/09 05:15:35;;;;;;;1.70;0.80;;;2.60;99.90;2.50;101566.00;;;;4951295;28;89069;-62
2022/10/09 05:18:00;;;;;;;1.30;1.20;;;2.80;99.90;2.50;101583.00;;;;4950813;28;109059;-61
2022/10/09 05:20:26;;;;;;;6.70;1.20;;;2.80;99.90;2.50;101589.00;;;;4948954;28;109866;-61
2022/10/09 05:22:52;;;;;;;1.23;1.13;;;2.80;99.90;2.50;101589.00;;;;4943838;28;108986;-62
2022/10/09 05:25:17;;;;;;;2.20;1.07;;;2.70;99.90;2.40;101585.00;;;;4946877;28;117179;-62
2022/10/09 05:27:43;;;;;;;1.17;1.07;;;2.70;99.90;2.50;101590.00;;;;4942354;28;117377;-62
2022/10/09 05:30:09;;;;;;;1.30;0.90;;;2.70;99.90;2.40;101585.00;;;;4943339;28;109838;-62
2022/10/09 05:32:35;;;;;;;1.73;1.07;;;2.70;99.90;2.40;101585.00;;;;4942885;28;100026;-62
2022/10/09 05:35:01;;;;;;;1.53;1.30;;;2.80;99.90;2.40;101577.00;;;;4953198;28;88286;-61
2022/10/09 05:37:26;;;;;;;1.90;1.07;;;2.70;99.90;2.40;101585.00;;;;4950512;28;117881;-61
2022/10/09 05:39:52;;;;;;;2.10;1.47;;;2.70;99.90;2.50;101594.00;;;;4951061;28;109206;-62
2022/10/09 05:42:18;;;;;;;1.23;1.13;;;2.70;99.90;2.50;101586.00;;;;4951654;28;89243;-62
2022/10/09 05:44:43;;;;;;;1.60;1.13;;;3.00;99.90;2.50;101588.00;;;;4944670;28;117623;-62
2022/10/09 05:47:09;;;;;;;1.40;1.30;;;2.70;99.90;2.60;101595.00;;;;4943259;28;118144;-62
2022/10/09 05:49:35;;;;;;;1.83;1.37;;;2.80;99.90;2.60;101593.00;;;;4941654;28;110414;-62
2022/10/09 05:52:00;;;;;;;1.60;1.30;;;2.90;99.90;2.70;101595.00;;;;4943858;28;107387;-62
2022/10/09 05:54:26;;;;;;;1.97;1.77;;;3.30;99.90;2.80;101600.00;;;;4957536;28;118931;-62
2022/10/09 05:56:52;;;;;;;2.10;1.80;;;3.00;99.90;2.90;101602.00;;;;4958161;28;87909;-62
2022/10/09 05:59:21;;;;;;;2.00;1.70;;;3.10;99.90;3.10;101602.00;;;;4954889;28;110438;-62
2022/10/09 06:01:49;;;;;;;15.63;11.77;;;3.20;99.90;3.20;101599.00;;;;4953457;28;87845;-62
2022/10/09 06:04:22;;;;;;;26.13;17.93;;;3.30;99.90;3.40;101603.00;;;;4946675;28;87841;-61
2022/10/09 06:06:48;;;;;;;12.07;8.77;;;3.60;99.90;3.60;101604.00;;;;4946099;28;88732;-61
2022/10/09 06:09:21;;;;;;;10.17;6.07;;;3.70;99.90;3.80;101617.00;;;;4946131;28;87914;-62
2022/10/09 06:11:49;;;;;;;8.83;4.97;;;3.90;99.90;4.00;101620.00;;;;4951058;28;88249;-62
2022/10/09 06:14:15;;;;;;;4.40;3.67;;;4.20;99.90;4.30;101622.00;;;;4954439;28;89168;-62
2022/10/09 06:16:44;;;;;;;4.50;3.30;;;4.40;99.90;4.50;101629.00;;;;4952696;28;118466;-62
2022/10/09 06:19:13;;;;;;;4.87;3.27;;;4.60;99.90;4.70;101628.00;;;;4953629;28;87950;-61
2022/10/09 06:21:39;;;;;;;3.60;3.00;;;4.80;99.90;4.90;101639.00;;;;4954349;28;87931;-62
2022/10/09 06:24:06;;;;;;;11.90;7.87;;;5.20;99.90;5.20;101634.00;;;;4951015;28;87992;-63
2022/10/09 06:26:32;;;;;;;11.67;7.73;;;5.30;99.90;5.40;101636.00;;;;4953544;28;88179;-62
2022/10/09 06:29:00;;;;;;;6.20;4.80;;;5.60;99.90;5.70;101643.00;;;;4944605;28;110056;-62
2022/10/09 06:31:30;;;;;;;7.80;5.13;;;5.70;99.90;5.90;101640.00;;;;4945956;28;88801;-63
2022/10/09 06:33:59;;;;;;;5.33;4.13;;;6.00;99.90;6.20;101646.00;;;;4949132;28;88624;-63
2022/10/09 06:36:28;;;;;;;6.50;4.07;;;6.70;99.90;6.40;101646.00;;;;4952694;28;87762;-63
2022/10/09 06:38:54;;;;;;;3.13;2.83;;;6.50;99.90;6.60;101642.00;;;;4953197;28;87995;-63
2022/10/09 06:41:24;;;;;;;4.30;3.77;;;6.70;99.90;6.80;101654.00;;;;4955607;28;95411;-62
2022/10/09 06:44:12;;;;;;;4.00;3.60;;;7.30;99.90;7.00;101664.00;;;;4951507;28;88469;-62
2022/10/09 06:46:40;;;;;;;7.73;3.77;;;7.10;99.90;7.30;101669.00;;;;4954553;28;100227;-62
2022/10/09 06:49:07;;;;;;;4.10;3.00;;;7.60;99.90;7.50;101662.00;;;;4950686;28;86785;-62
2022/10/09 06:51:34;;;;;;;4.83;3.53;;;7.50;99.90;7.80;101667.00;;;;4957584;28;88022;-62
2022/10/09 06:54:03;;;;;;;2.80;2.07;;;7.80;99.90;8.10;101671.00;;;;4945971;28;107167;-63
2022/10/09 06:56:31;;;;;;;3.60;2.17;;;8.10;99.90;8.40;101682.00;;;;4946836;28;88966;-62
2022/10/09 06:59:02;;;;;;;3.60;2.27;;;8.40;99.90;8.70;101683.00;;;;4952278;28;109140;-64
2022/10/09 07:01:30;;;;;;;2.57;2.37;;;8.70;99.90;8.90;101682.00;;;;4952516;28;87743;-62
2022/10/09 07:04:11;;;;;;;2.10;1.70;;;8.90;99.90;9.10;101701.00;;;;4950827;28;89091;-63
2022/10/09 07:06:41;;;;;;;3.10;2.30;;;9.10;99.90;9.40;101690.00;;;;4964615;28;89682;-63
2022/10/09 07:09:11;;;;;;;4.70;2.47;;;9.30;99.90;9.60;101699.00;;;;4948252;28;88037;-63
2022/10/09 07:11:44;;;;;;;4.33;1.93;;;9.80;99.90;9.90;101702.00;;;;4949086;28;102989;-64
2022/10/09 07:14:12;;;;;;;5.33;2.60;;;9.90;99.90;10.20;101702.00;;;;4950308;28;87560;-63
2022/10/09 07:16:41;;;;;;;2.87;1.83;;;10.40;99.90;10.50;101714.00;;;;4952683;28;88121;-63
2022/10/09 07:19:10;;;;;;;3.40;2.33;;;10.40;99.90;10.70;101710.00;;;;4964800;28;88113;-62
2022/10/09 07:21:38;;;;;;;2.40;1.60;;;10.70;99.90;10.90;101705.00;;;;4950763;28;89173;-62
2022/10/09 07:24:05;;;;;;;2.77;1.90;;;10.90;99.90;11.10;101712.00;;;;4949148;28;106921;-61
2022/10/09 07:26:35;;;;;;;4.43;2.30;;;11.10;99.90;11.30;101698.00;;;;4951638;28;88771;-61
2022/10/09 07:29:01;;;;;;;2.47;2.07;;;11.30;99.90;11.70;101713.00;;;;4949105;28;102132;-62
2022/10/09 07:31:26;;;;;;;3.23;2.03;;;11.60;99.90;12.00;101716.00;;;;4945998;28;88061;-61
2022/10/09 07:33:55;;;;;;;2.57;1.83;;;12.00;99.90;12.30;101711.00;;;;4943237;28;117671;-61
2022/10/09 07:36:21;;;;;;;1.90;1.80;;;12.30;99.90;12.60;101713.00;;;;4952443;28;88026;-63
2022/10/09 07:38:52;;;;;;;1.27;1.17;;;12.60;99.90;12.90;101719.00;;;;4950223;28;87191;-62
2022/10/09 07:41:19;;;;;;;3.07;1.87;;;12.80;99.90;13.10;101722.00;;;;4949061;28;87895;-62
2022/10/09 07:43:45;;;;;;;3.47;1.50;;;13.10;99.90;13.40;101721.00;;;;4949915;28;88493;-62
2022/10/09 07:46:14;;;;;;;1.67;1.50;;;13.40;99.90;13.70;101723.00;;;;4950155;28;88634;-61
2022/10/09 07:48:39;;;;;;;2.27;1.57;;;13.60;99.90;13.90;101718.00;;;;4949595;28;88058;-63
2022/10/09 07:51:33;;;;;;;1.47;1.37;;;13.80;99.90;14.10;101730.00;;;;4949860;28;87873;-63
2022/10/09 07:54:00;;;;;;;4.43;2.20;;;14.00;99.90;14.30;101719.00;;;;4942129;28;88974;-63
2022/10/09 07:56:39;;;;;;;2.27;1.97;;;14.30;99.90;14.50;101724.00;;;;4950475;28;88417;-62
2022/10/09 07:59:13;;;;;;;1.00;0.93;;;14.60;99.90;14.70;101726.00;;;;4949484;28;87776;-62
2022/10/09 08:01:39;;;;;;;1.47;1.20;;;14.70;99.90;14.90;101730.00;;;;4950281;28;88118;-62
2022/10/09 08:04:05;;;;;;;2.13;1.53;;;14.90;99.90;15.00;101725.00;;;;4949919;28;87762;-62
2022/10/09 08:06:31;;;;;;;2.37;1.60;;;15.00;99.90;15.10;101728.00;;;;4948241;28;88710;-61
2022/10/09 08:08:59;;;;;;;1.70;1.30;;;15.10;99.90;15.20;101732.00;;;;4947635;28;110658;-62
2022/10/09 08:11:27;;;;;;;1.10;1.00;;;15.20;99.90;15.30;101746.00;;;;4950369;28;88627;-61
2022/10/09 08:13:53;;;;;;;3.30;1.73;;;15.30;99.90;15.30;101733.00;;;;4947074;28;88833;-61
2022/10/09 08:16:22;;;;;;;2.23;1.40;;;15.30;99.90;15.40;101732.00;;;;4941421;28;88682;-61
2022/10/09 08:18:52;;;;;;;1.77;1.60;;;15.40;99.90;15.60;101740.00;;;;4948771;28;87851;-61
2022/10/09 08:21:18;;;;;;;1.45;1.25;;;15.60;99.90;15.70;101729.00;;;;4950479;28;100786;-61
2022/10/09 08:23:44;;;;;;;3.33;2.13;;;15.70;99.90;15.80;101739.00;;;;4950305;28;88371;-60
2022/10/09 08:26:19;;;;;;;1.20;1.10;;;15.80;99.90;16.00;101743.00;;;;4951737;28;87862;-61
2022/10/09 08:29:02;;;;;;;2.60;1.52;;;16.00;99.90;16.40;101734.00;;;;4947002;28;87391;-60
2022/10/09 08:31:30;;;;;;;1.48;1.35;;;16.30;99.90;16.60;101740.00;;;;4946929;28;101068;-60
2022/10/09 08:33:59;;;;;;;4.07;1.70;;;16.50;99.90;16.80;101729.00;;;;4948667;28;89047;-60
2022/10/09 08:36:25;;;;;;;2.90;1.58;;;16.70;99.90;17.00;101725.00;;;;4948388;28;92465;-60
2022/10/09 08:38:52;;;;;;;2.17;1.20;;;16.90;99.90;16.90;101735.00;;;;4947359;28;87693;-61
2022/10/09 08:41:31;;;;;;;2.70;1.63;;;16.90;99.90;16.80;101729.00;;;;4951783;28;107924;-60
2022/10/09 08:44:09;;;;;;;6.43;1.55;;;16.80;99.90;16.80;101728.00;;;;4948459;28;103389;-61
2022/10/09 08:46:49;;;;;;;1.73;1.63;;;16.80;99.90;16.90;101737.00;;;;4951347;28;108176;-61
2022/10/09 08:49:42;;;;;;;1.48;1.20;;;16.90;99.90;17.10;101743.00;;;;4945394;28;93707;-61
2022/10/09 08:52:23;;;;;;;1.77;1.08;;;17.10;99.90;17.60;101744.00;;;;4941457;28;87695;-61
2022/10/09 08:54:51;;;;;;;1.05;0.95;;;17.40;99.90;18.10;101747.00;;;;4950065;28;87462;-61
2022/10/09 08:57:18;;;;;;;1.15;1.05;;;17.80;99.90;18.50;101749.00;;;;4952829;28;88655;-61
2022/10/09 08:59:44;;;;;;;3.58;1.33;;;18.20;99.90;18.80;101750.00;;;;4943806;28;95993;-61
2022/10/09 09:02:29;;;;;;;2.95;1.02;;;18.60;99.90;19.10;101751.00;;;;4949391;28;88879;-61
2022/10/09 09:05:35;;;;;;;1.77;1.35;;;19.00;99.90;19.30;101753.00;;;;4949060;28;87960;-61
2022/10/09 09:08:31;;;;;;;3.03;1.35;;;19.20;98.70;19.50;101743.00;;;;4962944;28;108933;-61
2022/10/09 09:11:26;;;;;;;1.20;0.82;;;19.40;97.60;19.70;101747.00;;;;4950909;28;87803;-60
2022/10/09 09:14:49;;;;;;;0.90;0.85;;;19.60;96.60;19.90;101750.00;;;;4943568;28;87831;-60
2022/10/09 09:17:42;;;;;;;1.30;1.15;;;19.80;94.60;20.00;101750.00;;;;4948150;28;110602;-60
2022/10/09 09:20:25;;;;;;;1.48;1.05;;;19.90;94.30;20.40;101746.00;;;;4948182;28;107625;-61
2022/10/09 09:22:51;;;;;;;1.15;1.02;;;20.20;94.30;20.60;101758.00;;;;4953680;28;87089;-60
2022/10/09 09:25:27;;;;;;;2.28;0.98;;;20.40;93.30;20.80;101752.00;;;;4948068;28;87983;-62
2022/10/09 09:27:58;;;;;;;1.60;0.90;;;20.60;92.20;20.90;101744.00;;;;4949413;28;89052;-61
2022/10/09 09:30:33;;;;;;;4.80;2.83;;;20.70;90.60;20.90;101740.00;;;;4945324;28;112039;-60
2022/10/09 09:33:10;;;;;;;1.90;1.27;;;20.80;90.20;21.00;101744.00;;;;4947728;28;87982;-61
2022/10/09 09:36:01;;;;;;;1.75;0.90;;;20.80;88.50;21.10;101743.00;;;;4946147;28;87893;-61
2022/10/09 09:38:26;;;;;;;2.97;1.10;;;20.90;88.80;21.50;101746.00;;;;4950082;28;89046;-61
2022/10/09 09:40:52;;;;;;;0.95;0.85;;;21.10;88.30;21.80;101748.00;;;;4949329;28;116301;-60
2022/10/09 09:43:21;;;;;;;2.00;1.20;;;21.50;87.30;22.10;101744.00;;;;4949055;28;110625;-61
2022/10/09 09:45:51;;;;;;;7.90;1.23;;;21.70;86.10;22.30;101743.00;;;;4953659;28;96188;-61
2022/10/09 09:48:38;;;;;;;0.70;0.60;;;21.90;83.80;22.40;101743.00;;;;4949231;28;88071;-61
2022/10/09 09:51:16;;;;;;;2.20;1.13;;;22.10;82.60;22.70;101738.00;;;;4960958;28;107246;-61
2022/10/09 09:53:49;;;;;;;1.23;0.73;;;22.30;81.60;23.00;101743.00;;;;4949453;28;88200;-61
2022/10/09 09:56:16;;;;;;;1.92;0.70;;;22.80;80.90;23.40;101744.00;;;;4947290;28;97181;-60
2022/10/09 09:58:52;;;;;;;5.47;1.02;;;22.90;78.70;23.60;101732.00;;;;4949759;28;88967;-59
2022/10/09 10:01:27;;;;;;;14.75;9.27;;;23.20;76.70;23.90;101730.00;;;;4949428;28;87843;-61
2022/10/09 10:03:56;;;;;;;2.97;1.75;;;23.40;75.00;24.20;101732.00;;;;4951320;28;87735;-61
2022/10/09 10:06:24;;;;;;;0.73;0.60;;;23.70;72.90;24.40;101732.00;;;;4950372;28;90918;-61
2022/10/09 10:09:11;;;;;;;0.75;0.70;;;24.00;71.00;24.60;101732.00;;;;4949865;28;88104;-61
2022/10/09 10:12:02;;;;;;;0.73;0.68;;;24.20;69.40;24.90;101732.00;;;;4945904;28;93982;-61
2022/10/09 10:14:30;;;;;;;1.27;0.40;;;24.40;68.00;25.10;101728.00;;;;4948668;28;87336;-61
2022/10/09 10:16:59;;;;;;;1.60;0.52;;;24.60;66.20;25.30;101721.00;;;;4951102;28;87991;-61
2022/10/09 10:19:34;;;;;;;1.38;0.63;;;24.80;65.20;25.50;101727.00;;;;4950329;28;88298;-60
2022/10/09 10:22:04;;;;;;;1.52;1.42;;;25.00;62.50;25.60;101719.00;;;;4951667;28;89223;-61
2022/10/09 10:24:41;;;;;;;0.52;0.52;;;25.10;60.60;25.80;101724.00;;;;4945295;28;104796;-61
2022/10/09 10:27:38;;;;;;;0.65;0.30;;;25.30;60.10;26.10;101721.00;;;;4964963;28;88047;-61
2022/10/09 10:30:08;;;;;;;2.38;0.55;;;25.50;59.60;26.30;101714.00;;;;4949594;28;89234;-61
2022/10/09 10:32:58;;;;;;;1.90;0.85;;;25.80;56.60;26.20;101714.00;;;;4946245;28;110527;-60
2022/10/09 10:35:28;;;;;;;1.10;0.70;;;25.70;54.20;26.20;101714.00;;;;4946561;28;87745;-60
2022/10/09 10:38:25;;;;;;;4.57;4.10;;;25.70;53.70;26.30;101715.00;;;;4952030;28;94673;-60
2022/10/09 10:41:14;;;;;;;1.02;0.85;;;25.70;52.30;26.20;101708.00;;;;4954507;28;104508;-59
2022/10/09 10:43:50;;;;;;;1.65;0.68;;;25.60;52.00;26.10;101708.00;;;;4957526;28;87872;-59
2022/10/09 10:46:27;;;;;;;1.08;0.60;;;25.60;50.30;25.60;101707.00;;;;4952482;28;88127;-58
2022/10/09 10:48:53;;;;;;;5.25;2.35;;;25.20;48.60;25.20;101707.00;;;;4952240;28;101893;-60
2022/10/09 10:51:40;;;;;;;1.95;0.50;;;24.80;49.70;25.30;101706.00;;;;4951184;28;88691;-60
2022/10/09 10:54:23;;;;;;;0.93;0.75;;;24.80;51.30;25.70;101714.00;;;;4950423;28;88346;-60
2022/10/09 10:57:10;;;;;;;3.53;3.05;;;25.00;51.90;26.10;101702.00;;;;4948465;28;101286;-60
2022/10/09 10:59:59;;;;;;;1.70;0.98;;;25.40;51.60;26.20;101706.00;;;;4952078;28;87920;-60
2022/10/09 11:03:02;;;;;;;0.85;0.70;;;25.60;49.60;26.10;101699.00;;;;4970359;28;88361;-59
2022/10/09 11:05:42;;;;;;;0.50;0.47;;;25.50;48.20;25.90;101692.00;;;;4954081;28;88287;-60
2022/10/09 11:08:47;;;;;;;2.13;1.60;;;25.40;48.10;25.90;101691.00;;;;4964815;28;93166;-59
2022/10/09 11:11:32;;;;;;;7.07;2.28;;;25.30;49.00;26.10;101686.00;;;;4951171;28;87821;-60